Wetterdaten: aktuell Mittwoch, 02.09.2026 17:50
Datum Zeit Temperatur Temp. +5 cm Temp. -10 cm Feuchte A. Luftdruck Regen Wind Richtung Richtung Zeit Sonne UV-I Solarstrahlg Taupunkt Windchill Windböen
02.09.2026 17:50 22,7 °C 21,7 °C 18,3 °C 54 % 1018,3 hPa 0,0 l/m² 6,3 km/h (2 Bft) N-NO 14 ° 16 min 0,5 UV-I 120 W/m² 12,9 °C 22,7 °C 11,3 km/h (2 Bft)
02.09.2026 16:50 23,0 °C 23,9 °C 18,3 °C 55 % 1018,8 hPa 0,0 l/m² 1,0 km/h (0 Bft) NW 306 ° 16 min 0,8 UV-I 183 W/m² 13,5 °C 23,0 °C 3,2 km/h (1 Bft)
02.09.2026 15:50 22,4 °C 23,9 °C 17,8 °C 55 % 1019,0 hPa 0,0 l/m² 8,2 km/h (2 Bft) W-SW 254 ° 8 min 1,2 UV-I 206 W/m² 12,9 °C 22,4 °C 12,9 km/h (3 Bft)
02.09.2026 14:50 22,2 °C 25,6 °C 17,8 °C 56 % 1019,5 hPa 0,0 l/m² 3,9 km/h (1 Bft) W 263 ° 18 min 2,1 UV-I 371 W/m² 13,0 °C 22,2 °C 9,7 km/h (2 Bft)
02.09.2026 13:50 21,7 °C 25,6 °C 17,8 °C 58 % 1019,9 hPa 0,0 l/m² 4,9 km/h (1 Bft) W-NW 286 ° 34 min 2,1 UV-I 329 W/m² 13,1 °C 21,7 °C 8,0 km/h (2 Bft)
02.09.2026 12:32 20,7 °C 23,3 °C 17,2 °C 62 % 1020,5 hPa 0,0 l/m² 6,0 km/h (2 Bft) W-SW 248 ° 8 min 2,0 UV-I 325 W/m² 13,2 °C 20,7 °C 8,0 km/h (2 Bft)
02.09.2026 11:32 20,9 °C 26,1 °C 16,7 °C 67 % 1020,6 hPa 0,0 l/m² 10,3 km/h (2 Bft) NW 308 ° 60 min 2,7 UV-I 663 W/m² 14,5 °C 20,9 °C 19,3 km/h (3 Bft)
02.09.2026 10:32 18,2 °C 17,8 °C 16,7 °C 78 % 1020,9 hPa 0,0 l/m² 2,0 km/h (1 Bft) SW 217 ° 20 min 2,0 UV-I 459 W/m² 14,3 °C 18,2 °C 3,2 km/h (1 Bft)
02.09.2026 09:32 16,2 °C 17,2 °C 16,7 °C 88 % 1020,8 hPa 0,0 l/m² 2,4 km/h (1 Bft) SW 233 ° 40 min 0,9 UV-I 193 W/m² 14,2 °C 16,2 °C 4,8 km/h (1 Bft)
02.09.2026 08:32 13,7 °C 13,9 °C 16,7 °C 91 % 1020,8 hPa 0,0 l/m² 0,0 km/h (0 Bft) W-NW 302 ° 22 min 0,7 UV-I 188 W/m² 12,3 °C 13,7 °C 0,0 km/h (0 Bft)
02.09.2026 07:30 11,2 °C 9,4 °C 16,7 °C 91 % 1020,9 hPa 0,2 l/m² 0,0 km/h (0 Bft) NW 304 ° 20 min 0,0 UV-I 37 W/m² 9,8 °C 11,2 °C 0,0 km/h (0 Bft)
02.09.2026 06:30 10,2 °C 7,8 °C 16,7 °C 91 % 1020,9 hPa 0,0 l/m² 0,0 km/h (0 Bft) NW 305 ° 0 min 0,0 UV-I 12 W/m² 8,8 °C 10,2 °C 0,0 km/h (0 Bft)
02.09.2026 05:30 10,5 °C 7,8 °C 17,2 °C 90 % 1020,6 hPa 0,0 l/m² 0,0 km/h (0 Bft) NW 305 ° 0 min 0,0 UV-I 0 W/m² 8,9 °C 10,5 °C 0,0 km/h (0 Bft)
02.09.2026 04:30 11,0 °C 7,8 °C 17,2 °C 90 % 1020,3 hPa 0,0 l/m² 0,0 km/h (0 Bft) NW 305 ° 0 min 0,0 UV-I 0 W/m² 9,4 °C 11,0 °C 0,0 km/h (0 Bft)
02.09.2026 03:30 11,8 °C 8,3 °C 17,2 °C 90 % 1020,5 hPa 0,0 l/m² 0,0 km/h (0 Bft) NW 305 ° 0 min 0,0 UV-I 0 W/m² 10,2 °C 11,8 °C 0,0 km/h (0 Bft)
02.09.2026 02:30 12,5 °C 8,9 °C 17,8 °C 89 % 1020,6 hPa 0,0 l/m² 0,0 km/h (0 Bft) NW 305 ° 0 min 0,0 UV-I 0 W/m² 10,7 °C 12,5 °C 1,6 km/h (1 Bft)
02.09.2026 01:30 13,6 °C 10,6 °C 17,8 °C 89 % 1020,1 hPa 0,0 l/m² 0,0 km/h (0 Bft) NW 306 ° 0 min 0,0 UV-I 0 W/m² 11,8 °C 13,6 °C 0,0 km/h (0 Bft)
02.09.2026 00:30 14,3 °C 11,1 °C 17,8 °C 89 % 1020,1 hPa 0,0 l/m² 3,0 km/h (1 Bft) NW 315 ° 0 min 0,0 UV-I 5 W/m² 12,5 °C 14,3 °C 4,8 km/h (1 Bft)
02.09.2026 00:00 14,6 °C 11,7 °C 18,3 °C 89 % 1020,1 hPa 0,0 l/m² 0,0 km/h (0 Bft) NW 314 ° 0 min 0,0 UV-I 5 W/m² 12,8 °C 14,6 °C 0,0 km/h (0 Bft)
_ Min-Zeit 06:38 06:34 11:52 17:12 17:50 - 10:12 - - - - - 06:38 06:38 09:04
Minimum _ 10,2 °C 7,2 °C 16,7 °C 53 % 1018,3 hPa - 0,0 km/h (0 Bft) - - - - - 8,6 °C 10,2 °C 0,0 km/h (0 Bft)
_ Max-Zeit 16:26 16:26 17:50 09:00 07:48 07:10 11:20 - - 13:40 13:35 13:35 11:08 16:26 13:52
Maximum _ 23,8 °C 31,1 °C 18,3 °C 91 % 1021,1 hPa 0,2 l/m² 10,9 km/h
NW (2 Bft)
- - 5 min 3,8 UV-I 912 W/m² 14,9 °C 23,8 °C 24,1 km/h
W (4 Bft)
Durchschnitt _ 16,4 °C 16,3 °C 17,3 °C 77 % 1020,2 hPa #0,2 l/m² 2,5 km/h (1 Bft) W-SW - #4:22 h 1,6 UV-I 262 W/m² 11,9 °C 16,4 °C 4,7 km/h (1 Bft)